createdAt,value
2022-12-25T00:01:26.674Z,9.44
2022-12-25T00:03:54.498Z,9.56
2022-12-25T00:06:22.031Z,9.67
2022-12-25T00:08:50.869Z,9.71
2022-12-25T00:11:20.651Z,9.91
2022-12-25T00:13:48.927Z,9.91
2022-12-25T00:16:18.652Z,10.00
2022-12-25T00:18:46.667Z,10.05
2022-12-25T00:21:15.385Z,9.99
2022-12-25T00:23:43.346Z,10.02
2022-12-25T00:26:14.212Z,9.90
2022-12-25T00:28:41.681Z,9.91
2022-12-25T00:31:11.264Z,9.91
2022-12-25T00:33:40.722Z,9.97
2022-12-25T00:36:09.559Z,10.09
2022-12-25T00:38:39.110Z,9.94
2022-12-25T00:41:07.887Z,9.94
2022-12-25T00:43:37.100Z,9.96
2022-12-25T00:46:06.802Z,9.94
2022-12-25T00:48:35.397Z,9.93
2022-12-25T00:51:05.252Z,9.93
2022-12-25T00:53:34.324Z,10.03
2022-12-25T00:56:04.672Z,10.01
2022-12-25T00:58:33.670Z,9.95
2022-12-25T01:01:03.687Z,10.10
2022-12-25T01:03:31.654Z,9.97
2022-12-25T01:06:01.228Z,10.07
2022-12-25T01:08:30.957Z,10.07
2022-12-25T01:10:59.473Z,10.22
2022-12-25T01:13:27.085Z,10.16
2022-12-25T01:15:54.829Z,10.14
2022-12-25T01:18:25.375Z,10.10
2022-12-25T01:20:52.907Z,10.08
2022-12-25T01:23:20.388Z,10.18
2022-12-25T01:25:47.893Z,10.11
2022-12-25T01:28:16.569Z,10.05
2022-12-25T01:30:49.023Z,10.03
2022-12-25T01:33:16.485Z,9.94
2022-12-25T01:35:45.315Z,9.95
2022-12-25T01:38:12.818Z,9.89
2022-12-25T01:40:40.382Z,9.89
2022-12-25T01:43:21.222Z,9.91
2022-12-25T01:45:49.342Z,9.90
2022-12-25T01:48:20.802Z,9.88
2022-12-25T01:50:54.614Z,9.73
2022-12-25T01:53:22.781Z,9.72
2022-12-25T01:55:54.740Z,9.63
2022-12-25T01:58:22.448Z,9.69
2022-12-25T02:00:52.154Z,9.56
2022-12-25T02:03:20.851Z,9.54
2022-12-25T02:05:51.385Z,9.59
2022-12-25T02:08:21.434Z,9.60
2022-12-25T02:10:49.092Z,9.68
2022-12-25T02:13:20.223Z,9.79
2022-12-25T02:15:56.456Z,9.76
2022-12-25T02:18:34.934Z,9.75
2022-12-25T02:21:31.062Z,9.73
2022-12-25T02:24:10.659Z,9.58
2022-12-25T02:27:17.051Z,9.60
2022-12-25T02:29:50.432Z,9.72
2022-12-25T02:32:25.301Z,9.72
2022-12-25T02:34:59.417Z,9.81
2022-12-25T02:37:32.828Z,9.74
2022-12-25T02:40:06.697Z,9.67
2022-12-25T02:42:55.521Z,9.76
2022-12-25T02:45:47.169Z,9.73
2022-12-25T02:48:34.415Z,9.81
2022-12-25T02:51:23.768Z,9.74
2022-12-25T02:54:11.563Z,9.81
2022-12-25T02:56:58.795Z,9.88
2022-12-25T02:59:46.817Z,9.90
2022-12-25T03:02:34.803Z,9.98
2022-12-25T03:05:23.097Z,9.92
2022-12-25T03:07:51.198Z,9.95
2022-12-25T03:10:39.717Z,9.96
2022-12-25T03:13:13.546Z,9.96
2022-12-25T03:15:58.267Z,9.98
2022-12-25T03:18:29.738Z,9.96
2022-12-25T03:21:14.818Z,10.03
2022-12-25T03:24:18.175Z,10.10
2022-12-25T03:26:58.386Z,10.15
2022-12-25T03:29:46.965Z,10.14
2022-12-25T03:32:27.224Z,10.15
2022-12-25T03:35:25.526Z,10.15
2022-12-25T03:38:32.732Z,10.05
2022-12-25T03:41:29.756Z,10.10
2022-12-25T03:44:37.192Z,10.06
2022-12-25T03:47:31.324Z,9.92
2022-12-25T03:50:23.318Z,10.00
2022-12-25T03:53:09.660Z,10.02
2022-12-25T03:55:54.606Z,9.99
2022-12-25T03:58:42.106Z,10.00
2022-12-25T04:01:28.177Z,9.96
2022-12-25T04:04:13.657Z,9.92
2022-12-25T04:06:59.406Z,9.89
2022-12-25T04:09:44.215Z,10.00
2022-12-25T04:12:29.572Z,10.02
2022-12-25T04:15:14.985Z,9.92
2022-12-25T04:18:02.409Z,9.84
2022-12-25T04:20:47.786Z,9.95
2022-12-25T04:23:34.377Z,10.06
2022-12-25T04:26:22.063Z,10.02
2022-12-25T04:29:07.420Z,9.94
2022-12-25T04:31:52.657Z,9.98
2022-12-25T04:34:43.146Z,9.95
2022-12-25T04:37:10.712Z,9.94
2022-12-25T04:39:39.580Z,9.95
2022-12-25T04:42:07.044Z,9.87
2022-12-25T04:44:35.236Z,9.80
2022-12-25T04:47:07.567Z,9.97
2022-12-25T04:49:38.527Z,9.94
2022-12-25T04:52:06.285Z,9.97
2022-12-25T04:54:33.859Z,9.92
2022-12-25T04:57:02.676Z,9.93
2022-12-25T04:59:30.225Z,9.85
2022-12-25T05:01:57.811Z,9.92
2022-12-25T05:04:25.414Z,9.79
2022-12-25T05:06:52.915Z,9.89
2022-12-25T05:09:20.753Z,9.80
2022-12-25T05:11:48.269Z,9.77
2022-12-25T05:14:17.649Z,9.69
2022-12-25T05:16:45.448Z,9.68
2022-12-25T05:19:13.275Z,9.70
2022-12-25T05:21:40.767Z,9.66
2022-12-25T05:24:08.433Z,9.65
2022-12-25T05:26:35.923Z,9.58
2022-12-25T05:29:03.417Z,9.70
2022-12-25T05:31:32.407Z,9.58
2022-12-25T05:33:59.968Z,9.55
2022-12-25T05:36:27.732Z,9.51
2022-12-25T05:38:55.454Z,9.46
2022-12-25T05:41:22.938Z,9.50
2022-12-25T05:43:53.273Z,9.44
2022-12-25T05:46:20.824Z,9.60
2022-12-25T05:48:49.666Z,9.51
2022-12-25T05:51:17.156Z,9.52
2022-12-25T05:53:45.537Z,9.57
2022-12-25T05:56:13.436Z,9.60
2022-12-25T05:58:41.656Z,9.63
2022-12-25T06:01:14.049Z,9.62
2022-12-25T06:03:41.702Z,9.74
2022-12-25T06:06:10.996Z,9.74
2022-12-25T06:08:38.576Z,9.79
2022-12-25T06:11:07.477Z,9.75
2022-12-25T06:13:35.827Z,9.65
2022-12-25T06:16:04.825Z,9.66
2022-12-25T06:18:32.355Z,9.74
2022-12-25T06:20:59.916Z,9.64
2022-12-25T06:23:28.816Z,9.69
2022-12-25T06:25:56.350Z,9.62
2022-12-25T06:28:23.807Z,9.68
2022-12-25T06:30:51.303Z,9.59
2022-12-25T06:33:18.780Z,9.60
2022-12-25T06:35:47.830Z,9.67
2022-12-25T06:38:15.293Z,9.66
2022-12-25T06:40:44.106Z,9.69
2022-12-25T06:43:11.548Z,9.74
2022-12-25T06:45:39.113Z,9.74
2022-12-25T06:48:06.807Z,9.71
2022-12-25T06:50:34.331Z,9.76
2022-12-25T06:53:01.792Z,9.87
2022-12-25T06:55:29.264Z,9.80
2022-12-25T06:58:00.923Z,9.74
2022-12-25T07:00:30.829Z,9.80
2022-12-25T07:02:58.444Z,9.76
2022-12-25T07:05:26.043Z,9.80
2022-12-25T07:07:53.566Z,9.89
2022-12-25T07:10:21.025Z,9.97
2022-12-25T07:12:48.510Z,10.06
2022-12-25T07:15:17.811Z,10.00
2022-12-25T07:17:45.328Z,10.00
2022-12-25T07:20:12.831Z,9.99
2022-12-25T07:22:40.397Z,9.93
2022-12-25T07:25:08.543Z,9.80
2022-12-25T07:27:36.024Z,9.86
2022-12-25T07:30:03.609Z,9.81
2022-12-25T07:32:32.877Z,9.78
2022-12-25T07:35:00.352Z,9.73
2022-12-25T07:37:27.830Z,9.71
2022-12-25T07:39:55.372Z,9.71
2022-12-25T07:42:25.277Z,9.76
2022-12-25T07:44:53.042Z,9.80
2022-12-25T07:47:20.514Z,9.73
2022-12-25T07:49:49.320Z,9.83
2022-12-25T07:52:16.799Z,9.87
2022-12-25T07:54:44.336Z,9.92
2022-12-25T07:57:11.788Z,9.88
2022-12-25T07:59:39.243Z,9.97
2022-12-25T08:02:07.059Z,9.91
2022-12-25T08:04:34.861Z,9.81
2022-12-25T08:07:03.667Z,9.94
2022-12-25T08:09:31.113Z,10.01
2022-12-25T08:11:58.600Z,9.80
2022-12-25T08:14:26.122Z,9.89
2022-12-25T08:16:53.658Z,9.93
2022-12-25T08:19:21.213Z,10.00
2022-12-25T08:21:48.662Z,10.06
2022-12-25T08:24:17.545Z,10.08
2022-12-25T08:26:45.020Z,9.98
2022-12-25T08:29:12.535Z,9.95
2022-12-25T08:31:46.077Z,10.05
2022-12-25T08:34:14.691Z,10.26
2022-12-25T08:36:42.386Z,10.30
2022-12-25T08:39:09.895Z,10.33
2022-12-25T08:41:38.791Z,10.16
2022-12-25T08:44:07.452Z,10.18
2022-12-25T08:46:35.284Z,10.25
2022-12-25T08:49:02.847Z,10.29
2022-12-25T08:51:30.332Z,10.37
2022-12-25T08:54:01.386Z,10.42
2022-12-25T08:56:29.291Z,10.56
2022-12-25T08:58:58.182Z,10.58
2022-12-25T09:01:25.738Z,10.77
2022-12-25T09:03:53.378Z,10.73
2022-12-25T09:06:20.864Z,10.89
2022-12-25T09:08:49.818Z,10.88
2022-12-25T09:11:18.775Z,10.97
2022-12-25T09:13:46.385Z,10.83
2022-12-25T09:16:17.784Z,10.63
2022-12-25T09:18:45.561Z,10.63
2022-12-25T09:21:15.602Z,10.60
2022-12-25T09:23:43.559Z,10.76
2022-12-25T09:26:14.487Z,10.80
2022-12-25T09:28:48.442Z,10.70
2022-12-25T09:31:19.757Z,10.58
2022-12-25T09:33:47.492Z,10.54
2022-12-25T09:36:14.989Z,10.57
2022-12-25T09:38:42.446Z,10.53
2022-12-25T09:41:18.258Z,10.59
2022-12-25T09:43:50.938Z,10.37
2022-12-25T09:46:22.784Z,10.48
2022-12-25T09:49:00.125Z,10.49
2022-12-25T09:51:30.653Z,10.58
2022-12-25T09:54:01.616Z,10.52
2022-12-25T09:56:29.130Z,10.50
2022-12-25T09:58:56.640Z,10.42
2022-12-25T10:01:34.964Z,10.44
2022-12-25T10:04:22.984Z,10.39
2022-12-25T10:07:00.810Z,10.44
2022-12-25T10:09:46.288Z,10.44
2022-12-25T10:12:31.230Z,10.31
2022-12-25T10:15:11.409Z,10.18
2022-12-25T10:17:58.596Z,10.22
2022-12-25T10:20:39.886Z,10.16
2022-12-25T10:23:15.289Z,10.02
2022-12-25T10:25:44.372Z,9.99
2022-12-25T10:28:15.363Z,10.12
2022-12-25T10:30:45.079Z,10.09
2022-12-25T10:33:17.375Z,10.10
2022-12-25T10:35:45.636Z,10.06
2022-12-25T10:38:15.810Z,10.00
2022-12-25T10:40:55.857Z,10.04
2022-12-25T10:43:29.379Z,10.19
2022-12-25T10:45:56.954Z,10.06
2022-12-25T10:48:28.988Z,10.13
2022-12-25T10:50:57.077Z,10.11
2022-12-25T10:53:26.544Z,10.11
2022-12-25T10:55:57.183Z,10.04
2022-12-25T10:58:24.690Z,10.00
2022-12-25T11:00:54.458Z,10.19
2022-12-25T11:03:25.660Z,10.18
2022-12-25T11:05:55.162Z,10.30
2022-12-25T11:08:24.527Z,10.31
2022-12-25T11:10:57.886Z,10.33
2022-12-25T11:13:27.953Z,10.36
2022-12-25T11:16:09.378Z,10.42
2022-12-25T11:18:46.881Z,10.39
2022-12-25T11:21:18.987Z,10.25
2022-12-25T11:23:48.357Z,10.34
2022-12-25T11:26:17.562Z,10.29
2022-12-25T11:28:46.263Z,10.21
2022-12-25T11:31:16.279Z,10.20
2022-12-25T11:33:52.620Z,10.22
2022-12-25T11:36:29.521Z,10.30
2022-12-25T11:38:58.234Z,10.38
2022-12-25T11:41:33.209Z,10.29
2022-12-25T11:44:05.112Z,10.23
2022-12-25T11:46:41.228Z,10.25
2022-12-25T11:49:15.516Z,10.40
2022-12-25T11:51:48.311Z,10.38
2022-12-25T11:54:21.053Z,10.49
2022-12-25T11:56:49.737Z,10.58
2022-12-25T11:59:24.001Z,10.46
2022-12-25T12:01:55.805Z,10.60
2022-12-25T12:04:31.754Z,10.64
2022-12-25T12:07:07.006Z,10.70
2022-12-25T12:09:45.033Z,10.83
2022-12-25T12:12:18.976Z,10.75
2022-12-25T12:14:54.300Z,10.58
2022-12-25T12:17:21.671Z,10.54
2022-12-25T12:19:49.362Z,10.63
2022-12-25T12:22:22.214Z,10.49
2022-12-25T12:24:56.638Z,10.61
2022-12-25T12:27:28.307Z,10.46
2022-12-25T12:29:58.783Z,10.53
2022-12-25T12:32:37.991Z,10.53
2022-12-25T12:35:16.595Z,10.54
2022-12-25T12:37:47.537Z,10.43
2022-12-25T12:40:29.692Z,10.52
2022-12-25T12:42:57.661Z,10.40
2022-12-25T12:45:27.583Z,10.45
2022-12-25T12:47:55.231Z,10.57
2022-12-25T12:50:35.306Z,10.63
2022-12-25T12:53:27.388Z,10.86
2022-12-25T12:55:55.339Z,10.90
2022-12-25T12:58:32.939Z,10.89
2022-12-25T13:01:20.004Z,10.94
2022-12-25T13:04:09.975Z,10.94
2022-12-25T13:06:44.411Z,10.95
2022-12-25T13:09:32.432Z,11.17
2022-12-25T13:12:00.501Z,11.15
2022-12-25T13:14:28.381Z,11.00
2022-12-25T13:16:55.932Z,11.05
2022-12-25T13:19:25.889Z,11.01
2022-12-25T13:21:55.561Z,11.09
2022-12-25T13:24:26.607Z,11.17
2022-12-25T13:26:54.535Z,10.96
2022-12-25T13:29:30.931Z,11.00
2022-12-25T13:31:59.509Z,11.01
2022-12-25T13:34:31.136Z,11.06
2022-12-25T13:36:59.474Z,11.17
2022-12-25T13:39:29.374Z,11.11
2022-12-25T13:42:10.304Z,11.22
2022-12-25T13:44:44.850Z,11.12
2022-12-25T13:47:21.812Z,11.07
2022-12-25T13:49:50.548Z,11.05
2022-12-25T13:52:21.555Z,11.07
2022-12-25T13:54:55.847Z,11.06
2022-12-25T13:57:27.008Z,11.09
2022-12-25T13:59:54.841Z,11.00
2022-12-25T14:02:27.947Z,11.06
2022-12-25T14:04:55.756Z,11.20
2022-12-25T14:07:24.904Z,11.20
2022-12-25T14:09:58.324Z,11.12
2022-12-25T14:12:26.885Z,11.12
2022-12-25T14:14:55.692Z,11.15
2022-12-25T14:17:23.970Z,11.01
2022-12-25T14:20:04.095Z,11.15
2022-12-25T14:22:35.927Z,11.02
2022-12-25T14:25:15.674Z,11.00
2022-12-25T14:27:49.881Z,11.00
2022-12-25T14:30:18.240Z,10.96
2022-12-25T14:32:50.752Z,11.06
2022-12-25T14:35:23.339Z,11.03
2022-12-25T14:37:56.848Z,10.94
2022-12-25T14:40:30.284Z,10.89
2022-12-25T14:42:59.194Z,10.95
2022-12-25T14:45:30.036Z,10.83
2022-12-25T14:47:59.869Z,10.86
2022-12-25T14:50:30.300Z,10.88
2022-12-25T14:52:59.514Z,10.90
2022-12-25T14:55:30.427Z,10.87
2022-12-25T14:57:59.702Z,10.91
2022-12-25T15:00:31.610Z,10.91
2022-12-25T15:03:00.919Z,10.89
2022-12-25T15:05:34.594Z,10.89
2022-12-25T15:08:18.634Z,10.92
2022-12-25T15:11:04.230Z,10.87
2022-12-25T15:13:32.437Z,10.91
2022-12-25T15:16:06.649Z,10.95
2022-12-25T15:18:38.484Z,10.92
2022-12-25T15:21:06.854Z,10.99
2022-12-25T15:23:34.319Z,11.08
2022-12-25T15:26:03.174Z,11.11
2022-12-25T15:28:30.658Z,11.06
2022-12-25T15:30:58.203Z,11.13
2022-12-25T15:33:25.717Z,11.12
2022-12-25T15:35:53.163Z,11.22
2022-12-25T15:38:20.764Z,11.13
2022-12-25T15:40:48.370Z,11.21
2022-12-25T15:46:05.261Z,11.20
2022-12-25T15:48:32.753Z,11.14
2022-12-25T15:51:00.248Z,11.14
2022-12-25T15:53:27.747Z,11.18
2022-12-25T15:55:55.687Z,11.24
2022-12-25T15:58:24.552Z,11.35
2022-12-25T16:00:52.437Z,11.25
2022-12-25T16:03:19.949Z,11.42
2022-12-25T16:05:47.493Z,11.52
2022-12-25T16:08:14.964Z,11.45
2022-12-25T16:10:42.471Z,11.49
2022-12-25T16:13:09.974Z,11.41
2022-12-25T16:15:38.859Z,11.41
2022-12-25T16:18:06.584Z,11.32
2022-12-25T16:20:36.003Z,11.29
2022-12-25T16:23:03.512Z,11.31
2022-12-25T16:25:31.085Z,11.25
2022-12-25T16:27:58.619Z,11.37
2022-12-25T16:30:26.193Z,11.41
2022-12-25T16:32:55.038Z,11.39
2022-12-25T16:35:22.502Z,11.41
2022-12-25T16:37:49.959Z,11.40
2022-12-25T16:40:17.948Z,11.40
2022-12-25T16:42:45.429Z,11.40
2022-12-25T16:45:13.604Z,11.35
2022-12-25T16:47:41.125Z,11.25
2022-12-25T16:50:10.951Z,11.34
2022-12-25T16:52:38.443Z,11.29
2022-12-25T16:55:06.589Z,11.41
2022-12-25T16:57:34.798Z,11.49
2022-12-25T17:00:02.300Z,11.48
2022-12-25T17:02:30.211Z,11.34
2022-12-25T17:04:57.880Z,11.40
2022-12-25T17:07:26.781Z,11.39
2022-12-25T17:09:54.266Z,11.46
2022-12-25T17:12:21.742Z,11.54
2022-12-25T17:14:49.256Z,11.49
2022-12-25T17:17:16.804Z,11.54
2022-12-25T17:19:44.524Z,11.50
2022-12-25T17:22:12.051Z,11.53
2022-12-25T17:24:41.441Z,11.49
2022-12-25T17:27:09.745Z,11.44
2022-12-25T17:29:38.932Z,11.48
2022-12-25T17:32:07.241Z,11.52
2022-12-25T17:34:35.049Z,11.49
2022-12-25T17:37:02.518Z,11.52
2022-12-25T17:39:30.068Z,11.45
2022-12-25T17:41:58.896Z,11.45
2022-12-25T17:44:27.193Z,11.50
2022-12-25T17:46:54.718Z,11.55
2022-12-25T17:49:23.184Z,11.53
2022-12-25T17:51:50.728Z,11.48
2022-12-25T17:54:18.275Z,11.39
2022-12-25T17:56:45.782Z,11.50
2022-12-25T17:59:18.272Z,11.50
2022-12-25T18:01:48.007Z,11.54
2022-12-25T18:04:15.763Z,11.50
2022-12-25T18:06:43.545Z,11.46
2022-12-25T18:09:11.133Z,11.54
2022-12-25T18:11:40.770Z,11.61
2022-12-25T18:14:09.960Z,11.54
2022-12-25T18:16:42.031Z,11.56
2022-12-25T18:19:10.122Z,11.57
2022-12-25T18:21:38.295Z,11.55
2022-12-25T18:24:07.717Z,11.53
2022-12-25T18:26:35.372Z,11.64
2022-12-25T18:29:03.155Z,11.65
2022-12-25T18:31:31.903Z,11.69
2022-12-25T18:34:01.592Z,11.59
2022-12-25T18:36:30.730Z,11.67
2022-12-25T18:38:59.087Z,11.74
2022-12-25T18:41:27.931Z,11.75
2022-12-25T18:43:56.177Z,11.84
2022-12-25T18:46:25.670Z,11.85
2022-12-25T18:48:53.652Z,11.86
2022-12-25T18:51:22.834Z,11.87
2022-12-25T18:53:50.887Z,11.97
2022-12-25T18:56:18.919Z,11.88
2022-12-25T18:58:47.281Z,11.86
2022-12-25T19:01:17.568Z,11.92
2022-12-25T19:03:46.004Z,11.85
2022-12-25T19:06:18.655Z,11.97
2022-12-25T19:08:47.666Z,11.93
2022-12-25T19:11:15.466Z,11.91
2022-12-25T19:13:43.534Z,11.87
2022-12-25T19:16:11.393Z,11.89
2022-12-25T19:18:39.379Z,11.85
2022-12-25T19:21:09.553Z,11.81
2022-12-25T19:23:38.337Z,11.78
2022-12-25T19:26:09.116Z,11.79
2022-12-25T19:28:36.895Z,11.89
2022-12-25T19:31:07.278Z,11.93
2022-12-25T19:33:36.491Z,11.97
2022-12-25T19:36:05.884Z,11.91
2022-12-25T19:38:33.426Z,12.02
2022-12-25T19:41:05.666Z,12.09
2022-12-25T19:43:36.902Z,12.03
2022-12-25T19:46:05.367Z,12.08
2022-12-25T19:48:33.987Z,12.07
2022-12-25T19:51:02.108Z,12.00
2022-12-25T19:53:30.574Z,11.97
2022-12-25T19:56:02.715Z,11.86
2022-12-25T19:58:30.645Z,11.86
2022-12-25T20:01:00.871Z,11.78
2022-12-25T20:03:28.467Z,11.78
2022-12-25T20:05:56.499Z,11.80
2022-12-25T20:08:24.961Z,11.80
2022-12-25T20:10:52.826Z,11.95
2022-12-25T20:13:20.503Z,11.92
2022-12-25T20:15:48.742Z,11.94
2022-12-25T20:18:18.312Z,11.90
2022-12-25T20:20:46.208Z,12.02
2022-12-25T20:23:13.683Z,12.07
2022-12-25T20:25:42.135Z,12.09
2022-12-25T20:28:10.225Z,12.05
2022-12-25T20:30:39.554Z,11.99
2022-12-25T20:33:07.089Z,12.00
2022-12-25T20:35:35.867Z,11.96
2022-12-25T20:38:03.408Z,11.93
2022-12-25T20:40:32.440Z,11.92
2022-12-25T20:43:09.094Z,11.84
2022-12-25T20:45:40.974Z,12.02
2022-12-25T20:48:08.513Z,12.15
2022-12-25T20:50:37.306Z,12.25
2022-12-25T20:53:04.783Z,12.33
2022-12-25T20:55:32.292Z,12.44
2022-12-25T20:57:59.794Z,12.44
2022-12-25T21:00:27.569Z,12.41
2022-12-25T21:02:55.190Z,12.23
2022-12-25T21:05:22.788Z,12.29
2022-12-25T21:07:51.624Z,12.43
2022-12-25T21:10:19.413Z,12.52
2022-12-25T21:12:46.931Z,12.51
2022-12-25T21:15:15.838Z,12.57
2022-12-25T21:17:43.531Z,12.56
2022-12-25T21:20:11.871Z,12.61
2022-12-25T21:22:39.349Z,12.64
2022-12-25T21:25:08.779Z,12.64
2022-12-25T21:27:36.218Z,12.68
2022-12-25T21:30:14.435Z,12.70
2022-12-25T21:33:00.956Z,12.67
2022-12-25T21:35:28.504Z,12.67
2022-12-25T21:37:55.969Z,12.56
2022-12-25T21:40:24.775Z,12.55
2022-12-25T21:42:53.019Z,12.41
2022-12-25T21:45:20.521Z,12.45
2022-12-25T21:48:00.313Z,12.30
2022-12-25T21:50:48.490Z,12.47
2022-12-25T21:53:16.721Z,12.49
2022-12-25T21:55:56.264Z,12.55
2022-12-25T21:58:23.891Z,12.48
2022-12-25T22:00:51.431Z,12.43
2022-12-25T22:03:19.132Z,12.46
2022-12-25T22:06:04.692Z,12.19
2022-12-25T22:08:32.208Z,12.07
2022-12-25T22:11:03.754Z,12.04
2022-12-25T22:13:48.807Z,11.96
2022-12-25T22:16:33.846Z,11.97
2022-12-25T22:19:18.911Z,11.75
2022-12-25T22:21:46.474Z,11.84
2022-12-25T22:24:14.320Z,11.70
2022-12-25T22:26:44.469Z,11.78
2022-12-25T22:29:11.971Z,11.67
2022-12-25T22:31:46.390Z,11.63
2022-12-25T22:34:15.995Z,11.42
2022-12-25T22:36:43.636Z,11.64
2022-12-25T22:39:11.169Z,11.76
2022-12-25T22:41:38.667Z,11.71
2022-12-25T22:44:23.166Z,11.70
2022-12-25T22:46:50.991Z,11.64
2022-12-25T22:49:18.750Z,11.42
2022-12-25T22:51:47.268Z,11.38
2022-12-25T22:54:16.169Z,11.48
2022-12-25T22:56:45.478Z,11.31
2022-12-25T22:59:15.717Z,11.34
2022-12-25T23:01:43.471Z,11.40
2022-12-25T23:04:12.369Z,11.36
2022-12-25T23:06:40.582Z,11.49
2022-12-25T23:09:09.983Z,11.55
2022-12-25T23:11:37.477Z,11.68
2022-12-25T23:14:24.272Z,11.72
2022-12-25T23:16:53.113Z,11.75
2022-12-25T23:19:38.504Z,11.74
2022-12-25T23:22:23.837Z,11.71
2022-12-25T23:25:08.028Z,11.47
2022-12-25T23:27:35.484Z,11.28
2022-12-25T23:30:02.045Z,11.46
2022-12-25T23:32:30.888Z,11.53
2022-12-25T23:34:58.341Z,11.45
2022-12-25T23:37:25.853Z,11.63
2022-12-25T23:39:54.595Z,11.63
2022-12-25T23:42:22.254Z,11.65
2022-12-25T23:44:49.929Z,11.77
2022-12-25T23:47:17.463Z,11.65
2022-12-25T23:49:46.267Z,11.50
2022-12-25T23:52:13.888Z,11.76
2022-12-25T23:54:41.482Z,11.86
2022-12-25T23:57:08.976Z,12.09
2022-12-25T23:59:36.518Z,11.93
